Hauptseite
METAR-TAF:

METAR-TAF

Flughäfen :

Calabar, Nigeria

Breite: 04-58N, Länge: 008-21E, Höhe: 63 m

Beobachtung

Neuester Wetterbericht von vor 11 Stunden und 36 Minuten, um 15:00 UTC
Wind 6 kt aus West
Temperatur 33°C
Luftfeuchtigkeit 53%
Luftdruck 1010 hPa
Sichtweite: 8000 m
Durchbrochene Bewölkung in der Höhe von 1300 ft

METAR: DNCA 171500Z 27006KT 8000 BKN013 33/22 Q1010

Zeit: 03:36 (02:36 UTC)


TAF: fehlend

Wetterbeobachtungen und Prognosen von mehr als 4000 Flughäfen (METAR und TAF Bericht).

Die verfügbaren Stationen werden durch gelbe und rote Markierungen auf der Karte dargestellt.

Führen Sie die Maus auf sie, um den Namen der Station zu sehen.

Darauf klicken, um die Beobachtung von Wetterbeobachtungen und Prognosen zu sehen.

Um die Karte zu ändern : klicken Sie auf den grünen Tasten mit einem schwarzen Kreuz Zum Vergrößern, auf den grünen Button mit einem Gedankenstrich zu verkleinern, oder auf die grünen Pfeile für benachbarte Karten.


METAR-TAF: